Time;durP1;ratioP1;P1;durP2;ratioP2;P2;SDS_P1;SDS_P2;PMS_P1;PMS_P2;Temp;Humidity;BMP_temperature;BMP_pressure;BME280_temperature;BME280_humidity;BME280_pressure;Samples;Min_cycle;Max_cycle;Signal;HPM_P1;HPM_P2
2021/05/16 00:00:35;;;;;;;;;;;;;;;11.92;100.00;92446.72;5111885;28;19994;-88
2021/05/16 00:03:03;;;;;;;;;;;;;;;11.92;100.00;92462.16;5111974;28;20278;-88
2021/05/16 00:05:30;;;;;;;;;;;;;;;11.92;100.00;92458.78;5112027;28;20362;-87
2021/05/16 00:07:56;;;;;;;;;;;;;;;11.90;100.00;92464.19;5111419;28;19936;-87
2021/05/16 00:10:24;;;;;;;;;;;;;;;11.92;100.00;92463.94;5111359;28;20382;-88
2021/05/16 00:12:50;;;;;;;;;;;;;;;11.93;100.00;92471.44;5111396;28;20390;-88
2021/05/16 00:15:18;;;;;;;;;;;;;;;11.92;100.00;92471.66;5111281;28;20484;-87
2021/05/16 00:17:44;;;;;;;;;;;;;;;11.92;100.00;92467.28;5111285;28;20394;-88
2021/05/16 00:20:13;;;;;;;;;;;;;;;11.88;100.00;92463.63;5111576;28;19965;-88
2021/05/16 00:22:40;;;;;;;;;;;;;;;11.90;100.00;92466.75;5111301;28;19920;-88
2021/05/16 00:25:07;;;;;;;;;;;;;;;11.92;100.00;92467.28;5110506;28;20356;-89
2021/05/16 00:27:33;;;;;;;;;;;;;;;11.91;100.00;92468.31;5111158;28;20026;-88
2021/05/16 00:29:59;;;;;;;;;;;;;;;11.92;100.00;92466.50;5111096;28;19923;-89
2021/05/16 00:32:25;;;;;;;;;;;;;;;11.90;100.00;92466.75;5111348;28;19924;-87
2021/05/16 00:34:51;;;;;;;;;;;;;;;11.89;100.00;92468.53;5111183;28;19920;-88
2021/05/16 00:37:18;;;;;;;;;;;;;;;11.88;100.00;92466.19;5111438;28;19919;-88
2021/05/16 00:39:44;;;;;;;;;;;;;;;11.90;100.00;92467.53;5110772;28;19919;-88
2021/05/16 00:42:11;;;;;;;;;;;;;;;11.88;100.00;92471.34;5110923;28;20375;-88
2021/05/16 00:44:37;;;;;;;;;;;;;;;11.84;100.00;92470.25;5110812;28;19969;-88
2021/05/16 00:47:03;;;;;;;;;;;;;;;11.83;100.00;92461.78;5111042;28;19926;-87
2021/05/16 00:49:29;;;;;;;;;;;;;;;11.81;100.00;92466.34;5110910;28;19920;-87
2021/05/16 00:51:55;;;;;;;;;;;;;;;11.79;100.00;92467.63;5110829;28;20348;-87
2021/05/16 00:54:22;;;;;;;;;;;;;;;11.81;100.00;92468.94;5110581;28;19942;-88
2021/05/16 00:56:48;;;;;;;;;;;;;;;11.85;100.00;92476.97;5110914;28;20260;-89
2021/05/16 00:59:14;;;;;;;;;;;;;;;11.86;100.00;92470.81;5111016;28;19923;-88
2021/05/16 01:01:40;;;;;;;;;;;;;;;11.84;100.00;92473.63;5111311;28;19920;-88
2021/05/16 01:04:06;;;;;;;;;;;;;;;11.87;100.00;92470.59;5110807;28;19920;-88
2021/05/16 01:06:32;;;;;;;;;;;;;;;11.84;100.00;92475.41;5110734;28;19931;-87
2021/05/16 01:09:00;;;;;;;;;;;;;;;11.84;100.00;92470.25;5110260;28;19919;-88
2021/05/16 01:11:31;;;;;;;;;;;;;;;11.82;100.00;92462.78;5110366;28;19923;-87
2021/05/16 01:13:57;;;;;;;;;;;;;;;11.82;100.00;92464.56;5110159;28;19923;-88
2021/05/16 01:16:23;;;;;;;;;;;;;;;11.82;100.00;92462.00;5110431;28;20008;-88
2021/05/16 01:18:49;;;;;;;;;;;;;;;11.82;100.00;92454.28;5110239;28;19919;-87
2021/05/16 01:21:17;;;;;;;;;;;;;;;11.83;100.00;92450.69;5110395;28;20392;-87
2021/05/16 01:23:47;;;;;;;;;;;;;;;11.83;100.00;92454.06;5110855;28;20317;-87
2021/05/16 01:26:13;;;;;;;;;;;;;;;11.80;100.00;92441.66;5110506;28;19920;-88
2021/05/16 01:28:42;;;;;;;;;;;;;;;11.77;100.00;92444.72;5110349;28;19926;-88
2021/05/16 01:31:08;;;;;;;;;;;;;;;11.79;100.00;92439.34;5110746;28;20408;-88
2021/05/16 01:33:34;;;;;;;;;;;;;;;11.76;100.00;92430.28;5110555;28;19957;-88
2021/05/16 01:36:00;;;;;;;;;;;;;;;11.77;100.00;92429.28;5115544;28;19930;-89
2021/05/16 01:38:27;;;;;;;;;;;;;;;11.77;100.00;92416.41;5130561;28;19923;-88
2021/05/16 01:40:53;;;;;;;;;;;;;;;11.76;100.00;92422.56;5129336;28;19930;-88
2021/05/16 01:43:19;;;;;;;;;;;;;;;11.70;100.00;92424.28;5111941;28;19926;-88
2021/05/16 01:45:46;;;;;;;;;;;;;;;11.71;100.00;92428.41;5110100;28;20442;-87
2021/05/16 01:48:12;;;;;;;;;;;;;;;11.69;100.00;92420.16;5110124;28;19920;-88
2021/05/16 01:50:39;;;;;;;;;;;;;;;11.70;100.00;92429.41;5110002;28;19950;-87
2021/05/16 01:53:06;;;;;;;;;;;;;;;11.69;100.00;92427.88;5110269;28;19927;-88
2021/05/16 01:55:33;;;;;;;;;;;;;;;11.67;100.00;92429.88;5110290;28;19924;-88
2021/05/16 01:57:59;;;;;;;;;;;;;;;11.60;100.00;92430.06;5109632;28;20409;-87
2021/05/16 02:00:28;;;;;;;;;;;;;;;11.66;100.00;92427.56;5109668;28;19927;-87
2021/05/16 02:02:54;;;;;;;;;;;;;;;11.66;100.00;92433.47;5109763;28;19923;-87
2021/05/16 02:05:20;;;;;;;;;;;;;;;11.67;100.00;92441.97;5109917;28;19920;-88
2021/05/16 02:07:47;;;;;;;;;;;;;;;11.67;100.00;92437.59;5109644;28;20348;-88
2021/05/16 02:10:14;;;;;;;;;;;;;;;11.65;100.00;92444.78;5109923;28;19924;-87
2021/05/16 02:12:41;;;;;;;;;;;;;;;11.66;100.00;92446.34;5109763;28;19919;-86
2021/05/16 02:15:08;;;;;;;;;;;;;;;11.70;100.00;92451.78;5109963;28;20002;-87
2021/05/16 02:17:34;;;;;;;;;;;;;;;11.69;100.00;92450.22;5109928;28;19928;-87
2021/05/16 02:20:01;;;;;;;;;;;;;;;11.63;100.00;92450.16;5109523;28;20572;-87
2021/05/16 02:22:27;;;;;;;;;;;;;;;11.65;100.00;92455.06;5110288;28;19931;-89
2021/05/16 02:24:53;;;;;;;;;;;;;;;11.65;100.00;92452.50;5110403;28;20633;-88
2021/05/16 02:27:19;;;;;;;;;;;;;;;11.65;100.00;92456.84;5110326;28;19924;-87
2021/05/16 02:29:46;;;;;;;;;;;;;;;11.68;100.00;92449.47;5109602;28;20473;-86
2021/05/16 02:32:12;;;;;;;;;;;;;;;11.70;100.00;92456.94;5109585;28;19920;-88
2021/05/16 02:34:38;;;;;;;;;;;;;;;11.67;100.00;92454.84;5109616;28;20272;-87
2021/05/16 02:37:05;;;;;;;;;;;;;;;11.67;100.00;92460.75;5109654;28;19920;-88
2021/05/16 02:39:31;;;;;;;;;;;;;;;11.66;100.00;92458.44;5109342;28;19926;-87
2021/05/16 02:41:57;;;;;;;;;;;;;;;11.66;100.00;92456.63;5109563;28;20275;-86
2021/05/16 02:44:23;;;;;;;;;;;;;;;11.65;100.00;92462.78;5109155;28;19924;-88
2021/05/16 02:46:50;;;;;;;;;;;;;;;11.63;100.00;92467.41;5109572;28;19965;-88
2021/05/16 02:49:16;;;;;;;;;;;;;;;11.63;100.00;92464.81;5112264;28;19938;-88
2021/05/16 02:51:42;;;;;;;;;;;;;;;11.58;100.00;92464.75;5113256;28;19926;-89
2021/05/16 02:54:08;;;;;;;;;;;;;;;11.58;100.00;92472.47;5113163;28;19919;-88
2021/05/16 02:56:34;;;;;;;;;;;;;;;11.56;100.00;92477.03;5113020;28;19934;-87
2021/05/16 02:59:00;;;;;;;;;;;;;;;11.55;100.00;92480.63;5113256;28;19927;-87
2021/05/16 03:01:26;;;;;;;;;;;;;;;11.56;100.00;92477.84;5113207;28;20312;-87
2021/05/16 03:03:53;;;;;;;;;;;;;;;11.58;100.00;92485.31;5113009;28;20540;-88
2021/05/16 03:06:19;;;;;;;;;;;;;;;11.57;100.00;92481.19;5112944;28;19919;-88
2021/05/16 03:08:45;;;;;;;;;;;;;;;11.59;100.00;92486.88;5113073;28;19924;-88
2021/05/16 03:11:13;;;;;;;;;;;;;;;11.58;100.00;92482.75;5112889;28;20272;-89
2021/05/16 03:13:39;;;;;;;;;;;;;;;11.56;100.00;92480.41;5112772;28;19919;-87
2021/05/16 03:16:05;;;;;;;;;;;;;;;11.58;100.00;92486.09;5112552;28;20386;-87
2021/05/16 03:18:31;;;;;;;;;;;;;;;11.63;100.00;92478.44;5112462;28;19920;-87
2021/05/16 03:20:58;;;;;;;;;;;;;;;11.65;100.00;92480.78;5112519;28;20367;-88
2021/05/16 03:23:24;;;;;;;;;;;;;;;11.65;100.00;92487.72;5112747;28;19919;-89
2021/05/16 03:25:50;;;;;;;;;;;;;;;11.67;100.00;92488.28;5112617;28;19965;-89
2021/05/16 03:28:16;;;;;;;;;;;;;;;11.60;100.00;92480.72;5112465;28;19923;-88
2021/05/16 03:30:43;;;;;;;;;;;;;;;11.57;100.00;92479.38;5112689;28;19919;-86
2021/05/16 03:33:09;;;;;;;;;;;;;;;11.56;100.00;92475.25;5112685;28;19919;-84
2021/05/16 03:35:35;;;;;;;;;;;;;;;11.53;100.00;92480.09;5112433;28;20440;-86
2021/05/16 03:38:02;;;;;;;;;;;;;;;11.55;100.00;92472.91;5112262;28;19981;-90
2021/05/16 03:40:28;;;;;;;;;;;;;;;11.60;100.00;92473.78;5112003;28;19919;-88
2021/05/16 03:42:54;;;;;;;;;;;;;;;11.59;100.00;92472.25;5112031;28;19931;-88
2021/05/16 03:45:20;;;;;;;;;;;;;;;11.57;100.00;92479.38;5112067;28;19919;-89
2021/05/16 03:47:46;;;;;;;;;;;;;;;11.59;100.00;92479.94;5122885;27;19920;-89
2021/05/16 03:50:13;;;;;;;;;;;;;;;11.61;100.00;92480.50;5120905;27;20286;-90
2021/05/16 03:52:42;;;;;;;;;;;;;;;11.60;100.00;92486.66;5121919;27;19923;-91
2021/05/16 03:55:10;;;;;;;;;;;;;;;11.61;100.00;92487.41;5120559;27;19919;-90
2021/05/16 03:57:36;;;;;;;;;;;;;;;11.63;100.00;92491.31;5110220;27;19938;-90
2021/05/16 04:00:03;;;;;;;;;;;;;;;11.65;100.00;92485.94;5122382;27;20378;-88
2021/05/16 04:02:29;;;;;;;;;;;;;;;11.66;100.00;92492.63;5120553;27;19927;-88
2021/05/16 04:04:55;;;;;;;;;;;;;;;11.70;100.00;92486.03;5122191;27;19923;-88
2021/05/16 04:07:21;;;;;;;;;;;;;;;11.71;100.00;92490.16;5121687;27;19924;-88
2021/05/16 04:09:50;;;;;;;;;;;;;;;11.70;100.00;92492.94;5120186;27;19920;-88
2021/05/16 04:12:17;;;;;;;;;;;;;;;11.69;100.00;92496.53;5121160;27;19924;-88
2021/05/16 04:14:44;;;;;;;;;;;;;;;11.69;100.00;92496.53;5121753;27;20393;-88
2021/05/16 04:17:11;;;;;;;;;;;;;;;11.72;100.00;92496.84;5120329;27;19930;-84
2021/05/16 04:19:37;;;;;;;;;;;;;;;11.73;100.00;92502.78;5121464;27;19930;-86
2021/05/16 04:22:03;;;;;;;;;;;;;;;11.73;100.00;92497.63;5121902;27;19927;-86
2021/05/16 04:24:29;;;;;;;;;;;;;;;11.80;100.00;92500.81;5119884;27;20432;-86
2021/05/16 04:26:55;;;;;;;;;;;;;;;11.82;100.00;92509.09;5115721;27;19923;-86
2021/05/16 04:29:22;;;;;;;;;;;;;;;11.72;100.00;92504.56;5120609;27;19920;-86
2021/05/16 04:31:48;;;;;;;;;;;;;;;11.74;100.00;92506.91;5118999;27;19932;-86
2021/05/16 04:34:14;;;;;;;;;;;;;;;11.78;100.00;92505.44;5111517;28;19958;-86
2021/05/16 04:36:40;;;;;;;;;;;;;;;11.87;100.00;92509.19;5111468;28;20282;-86
2021/05/16 04:39:07;;;;;;;;;;;;;;;11.93;100.00;92507.44;5111149;28;19924;-85
2021/05/16 04:41:33;;;;;;;;;;;;;;;11.97;100.00;92503.41;5111149;28;19926;-85
2021/05/16 04:43:59;;;;;;;;;;;;;;;12.06;100.00;92510.75;5110882;28;19924;-85
2021/05/16 04:46:26;;;;;;;;;;;;;;;12.11;100.00;92505.66;5111166;28;20316;-86
2021/05/16 04:48:52;;;;;;;;;;;;;;;12.16;100.00;92509.09;5110875;28;19923;-85
2021/05/16 04:51:18;;;;;;;;;;;;;;;12.25;100.00;92508.69;5110621;28;19948;-85
2021/05/16 04:53:44;;;;;;;;;;;;;;;12.29;100.00;92504.63;5110603;28;19926;-85
2021/05/16 04:56:10;;;;;;;;;;;;;;;12.35;100.00;92506.25;5110903;28;19927;-85
2021/05/16 04:58:37;;;;;;;;;;;;;;;12.41;100.00;92497.56;5110567;28;19923;-88
2021/05/16 05:01:03;;;;;;;;;;;;;;;12.46;100.00;92504.59;5110736;28;20268;-85
2021/05/16 05:03:31;;;;;;;;;;;;;;;12.48;100.00;92506.91;5110560;28;19924;-89
2021/05/16 05:05:57;;;;;;;;;;;;;;;12.52;100.00;92506.22;5111248;28;19930;-89
2021/05/16 05:08:25;;;;;;;;;;;;;;;12.60;100.00;92507.63;5111441;28;19976;-85
2021/05/16 05:10:51;;;;;;;;;;;;;;;12.65;100.00;92504.31;5110741;28;19924;-88
2021/05/16 05:13:17;;;;;;;;;;;;;;;12.47;100.00;92482.97;5110521;28;19919;-85
2021/05/16 05:15:43;;;;;;;;;;;;;;;12.70;100.00;92512.88;5110755;28;19976;-86
2021/05/16 05:18:09;;;;;;;;;;;;;;;12.79;100.00;92515.03;5110510;28;20344;-85
2021/05/16 05:20:36;;;;;;;;;;;;;;;12.89;100.00;92507.44;5110527;28;20054;-85
2021/05/16 05:23:02;;;;;;;;;;;;;;;12.99;100.00;92509.31;5110273;28;19920;-86
2021/05/16 05:25:28;;;;;;;;;;;;;;;13.06;100.00;92524.63;5110526;28;19923;-85
2021/05/16 05:27:55;;;;;;;;;;;;;;;13.13;100.00;92527.78;5110093;28;19926;-86
2021/05/16 05:30:22;;;;;;;;;;;;;;;13.19;100.00;92529.38;5110020;28;20398;-86
2021/05/16 05:32:48;;;;;;;;;;;;;;;13.25;100.00;92532.03;5110515;28;19919;-86
2021/05/16 05:35:28;;;;;;;;;;;;;;;13.24;100.00;92531.22;5109156;28;19965;-87
2021/05/16 05:37:55;;;;;;;;;;;;;;;13.26;100.00;92533.56;5110097;28;19928;-86
2021/05/16 05:40:21;;;;;;;;;;;;;;;13.28;100.00;92537.47;5110294;28;19920;-86
2021/05/16 05:42:47;;;;;;;;;;;;;;;13.34;100.00;92533.91;5110257;28;19923;-85
2021/05/16 05:45:13;;;;;;;;;;;;;;;13.40;100.00;92533.97;5110018;28;19919;-84
2021/05/16 05:47:41;;;;;;;;;;;;;;;13.43;100.00;92536.06;5110512;28;20014;-83
2021/05/16 05:50:07;;;;;;;;;;;;;;;13.52;100.00;92536.44;5109926;28;19924;-83
2021/05/16 05:52:43;;;;;;;;;;;;;;;13.58;100.00;92538.81;5109870;28;20375;-83
2021/05/16 05:55:10;;;;;;;;;;;;;;;13.66;100.00;92539.41;5110162;28;19920;-83
2021/05/16 05:57:36;;;;;;;;;;;;;;;13.70;100.00;92530.16;5109199;28;20379;-83
2021/05/16 06:00:04;;;;;;;;;;;;;;;13.76;100.00;92534.31;5109199;28;19952;-83
2021/05/16 06:02:30;;;;;;;;;;;;;;;13.90;100.00;92527.72;5109655;28;19919;-82
2021/05/16 06:04:56;;;;;;;;;;;;;;;13.97;100.00;92529.31;5109779;28;20038;-82
2021/05/16 06:07:22;;;;;;;;;;;;;;;14.10;99.66;92531.47;5110130;28;19926;-81
2021/05/16 06:09:48;;;;;;;;;;;;;;;14.23;99.49;92538.03;5110098;28;19964;-82
2021/05/16 06:12:15;;;;;;;;;;;;;;;14.38;98.19;92534.75;5107501;28;20322;-82
2021/05/16 06:14:42;;;;;;;;;;;;;;;14.52;99.41;92534.31;5107039;28;19973;-81
2021/05/16 06:17:08;;;;;;;;;;;;;;;14.61;98.18;92532.00;5109493;28;19924;-82
2021/05/16 06:19:34;;;;;;;;;;;;;;;14.80;96.02;92538.34;5110207;28;19969;-81
2021/05/16 06:22:00;;;;;;;;;;;;;;;14.98;96.31;92538.94;5109573;28;19934;-80
2021/05/16 06:24:26;;;;;;;;;;;;;;;15.17;94.36;92543.66;5113180;28;19934;-81
2021/05/16 06:26:52;;;;;;;;;;;;;;;15.35;92.34;92543.19;5113479;28;20378;-82
2021/05/16 06:29:19;;;;;;;;;;;;;;;15.48;92.05;92535.97;5113294;28;19949;-82
2021/05/16 06:31:45;;;;;;;;;;;;;;;15.61;90.36;92543.22;5113824;28;19969;-81
2021/05/16 06:34:11;;;;;;;;;;;;;;;15.71;88.69;92545.06;5113295;28;19920;-83
2021/05/16 06:36:37;;;;;;;;;;;;;;;15.99;87.42;92543.03;5113423;28;19923;-82
2021/05/16 06:39:04;;;;;;;;;;;;;;;16.21;87.01;92546.38;5113239;28;19969;-83
2021/05/16 06:41:30;;;;;;;;;;;;;;;16.28;84.43;92552.06;5113179;28;19934;-83
2021/05/16 06:43:56;;;;;;;;;;;;;;;16.33;84.08;92546.88;5113385;28;20421;-82
2021/05/16 06:46:23;;;;;;;;;;;;;;;16.39;83.31;92556.19;5113013;28;19929;-82
2021/05/16 06:48:49;;;;;;;;;;;;;;;16.46;80.45;92540.38;5113088;28;20397;-82
2021/05/16 06:51:15;;;;;;;;;;;;;;;16.45;80.94;92543.22;5113233;28;19920;-81
2021/05/16 06:53:41;;;;;;;;;;;;;;;16.22;85.26;92532.38;5113351;28;19923;-81
2021/05/16 06:56:11;;;;;;;;;;;;;;;16.49;81.26;92533.91;5112559;28;19920;-81
2021/05/16 06:58:37;;;;;;;;;;;;;;;16.91;81.69;92529.38;5112905;28;20371;-82
2021/05/16 07:01:03;;;;;;;;;;;;;;;17.15;80.61;92533.97;5113097;28;19966;-82
2021/05/16 07:03:30;;;;;;;;;;;;;;;17.16;78.83;92533.69;5113081;28;19920;-81
2021/05/16 07:05:56;;;;;;;;;;;;;;;17.13;80.32;92526.44;5112831;28;19960;-84
2021/05/16 07:08:23;;;;;;;;;;;;;;;17.33;80.33;92525.56;5112861;28;19919;-86
2021/05/16 07:10:49;;;;;;;;;;;;;;;17.77;80.17;92523.19;5112687;28;20410;-85
2021/05/16 07:13:15;;;;;;;;;;;;;;;18.09;77.23;92528.97;5112685;28;20014;-83
2021/05/16 07:15:41;;;;;;;;;;;;;;;18.17;72.86;92523.19;5112841;28;19920;-83
2021/05/16 07:18:07;;;;;;;;;;;;;;;18.16;74.16;92519.03;5112877;28;20321;-83
2021/05/16 07:20:34;;;;;;;;;;;;;;;18.15;73.37;92518.25;5112870;28;19923;-82
2021/05/16 07:23:00;;;;;;;;;;;;;;;18.26;74.84;92512.97;5112611;28;19942;-82
2021/05/16 07:25:26;;;;;;;;;;;;;;;18.33;76.23;92510.81;5112729;28;19931;-82
2021/05/16 07:27:52;;;;;;;;;;;;;;;18.55;74.23;92512.16;5112737;28;19942;-85
2021/05/16 07:30:19;;;;;;;;;;;;;;;18.83;74.56;92507.94;5112189;27;19920;-84
2021/05/16 07:32:45;;;;;;;;;;;;;;;19.30;73.84;92501.44;5112339;28;19924;-85
2021/05/16 07:35:11;;;;;;;;;;;;;;;19.69;71.09;92500.34;5112041;28;20271;-85
2021/05/16 07:37:38;;;;;;;;;;;;;;;19.99;67.26;92506.16;5112259;28;19923;-83
2021/05/16 07:40:05;;;;;;;;;;;;;;;19.65;66.23;92498.59;5112124;28;19920;-82
2021/05/16 07:42:31;;;;;;;;;;;;;;;19.61;67.77;92499.16;5111730;28;19924;-82
2021/05/16 07:44:57;;;;;;;;;;;;;;;20.00;70.15;92497.28;5112255;28;19920;-83
2021/05/16 07:47:23;;;;;;;;;;;;;;;20.19;68.69;92508.72;5112097;28;19964;-83
2021/05/16 07:49:49;;;;;;;;;;;;;;;20.41;67.72;92511.47;5112215;28;19920;-84
2021/05/16 07:52:15;;;;;;;;;;;;;;;20.55;67.92;92506.25;5112114;28;19924;-83
2021/05/16 07:54:42;;;;;;;;;;;;;;;20.49;67.54;92509.25;5111892;28;19927;-84
2021/05/16 07:57:08;;;;;;;;;;;;;;;20.56;67.93;92505.19;5112166;28;20287;-82
2021/05/16 07:59:34;;;;;;;;;;;;;;;20.54;67.38;92503.94;5111954;28;19923;-82
2021/05/16 08:02:00;;;;;;;;;;;;;;;20.50;66.33;92500.38;5112106;28;19919;-82
2021/05/16 08:04:26;;;;;;;;;;;;;;;20.37;66.72;92500.06;5111936;28;19923;-82
2021/05/16 08:06:55;;;;;;;;;;;;;;;20.34;64.82;92515.50;5108371;28;19920;-82
2021/05/16 08:09:21;;;;;;;;;;;;;;;20.33;66.06;92508.75;5109568;28;20002;-81
2021/05/16 08:11:48;;;;;;;;;;;;;;;20.07;66.25;92514.38;5110491;28;20435;-81
2021/05/16 08:14:14;;;;;;;;;;;;;;;20.05;66.28;92508.69;5111321;28;19947;-81
2021/05/16 08:16:40;;;;;;;;;;;;;;;20.33;67.38;92501.72;5111054;28;19965;-81
2021/05/16 08:19:07;;;;;;;;;;;;;;;20.81;64.68;92503.19;5111523;28;19959;-81
2021/05/16 08:21:33;;;;;;;;;;;;;;;21.29;62.78;92495.22;5111432;28;19920;-82
2021/05/16 08:23:59;;;;;;;;;;;;;;;21.48;61.59;92498.44;5111276;28;19919;-83
2021/05/16 08:26:26;;;;;;;;;;;;;;;21.79;62.49;92496.25;5111322;28;19923;-82
2021/05/16 08:28:52;;;;;;;;;;;;;;;21.79;60.64;92499.63;5111133;28;19964;-81
2021/05/16 08:31:19;;;;;;;;;;;;;;;21.96;59.48;92495.56;5111153;28;20322;-82
2021/05/16 08:33:45;;;;;;;;;;;;;;;22.02;58.90;92491.75;5110996;28;19926;-82
2021/05/16 08:36:11;;;;;;;;;;;;;;;21.76;59.16;92502.84;5111139;28;19924;-81
2021/05/16 08:38:37;;;;;;;;;;;;;;;21.69;58.36;92498.00;5110801;28;19987;-81
2021/05/16 08:41:03;;;;;;;;;;;;;;;21.47;59.18;92494.28;5110834;28;19931;-81
2021/05/16 08:43:29;;;;;;;;;;;;;;;21.11;61.50;92494.28;5111122;28;19919;-81
2021/05/16 08:45:56;;;;;;;;;;;;;;;21.24;62.49;92488.25;5110064;28;19927;-81
2021/05/16 08:48:29;;;;;;;;;;;;;;;21.27;62.87;92492.91;5110673;28;20363;-82
2021/05/16 08:50:55;;;;;;;;;;;;;;;21.30;60.79;92500.13;5110727;28;20404;-82
2021/05/16 08:53:21;;;;;;;;;;;;;;;21.35;61.11;92491.44;5110557;28;20389;-82
2021/05/16 08:55:47;;;;;;;;;;;;;;;21.61;61.25;92491.63;5110989;28;19919;-82
2021/05/16 08:58:13;;;;;;;;;;;;;;;22.02;58.56;92492.53;5110743;28;19924;-82
2021/05/16 09:00:42;;;;;;;;;;;;;;;21.68;56.54;92495.66;5110688;28;20287;-81
2021/05/16 09:03:10;;;;;;;;;;;;;;;21.60;57.08;92490.09;5110552;28;19920;-81
2021/05/16 09:05:37;;;;;;;;;;;;;;;22.06;58.88;92486.69;5110715;28;20374;-81
2021/05/16 09:08:04;;;;;;;;;;;;;;;22.59;55.94;92484.38;5110119;28;19923;-81
2021/05/16 09:10:31;;;;;;;;;;;;;;;22.61;55.83;92476.97;5110568;28;19931;-82
2021/05/16 09:13:07;;;;;;;;;;;;;;;21.39;54.98;92478.53;5110220;28;19930;-80
2021/05/16 09:15:33;;;;;;;;;;;;;;;21.23;58.28;92479.66;5110368;28;19920;-81
2021/05/16 09:17:59;;;;;;;;;;;;;;;21.26;58.33;92474.91;5110514;28;19923;-81
2021/05/16 09:20:26;;;;;;;;;;;;;;;21.34;58.34;92474.22;5110254;28;20299;-81
2021/05/16 09:22:52;;;;;;;;;;;;;;;21.47;57.06;92475.22;5110249;28;19919;-81
2021/05/16 09:25:19;;;;;;;;;;;;;;;21.87;57.00;92470.16;5110455;28;19923;-82
2021/05/16 09:27:46;;;;;;;;;;;;;;;22.21;54.63;92470.63;5110620;28;19926;-80
2021/05/16 09:30:29;;;;;;;;;;;;;;;21.91;54.36;92467.72;5110507;28;19920;-81
2021/05/16 09:32:56;;;;;;;;;;;;;;;21.80;54.02;92459.34;5110227;28;20367;-81
2021/05/16 09:35:33;;;;;;;;;;;;;;;21.87;55.76;92469.38;5110017;28;20741;-81
2021/05/16 09:38:01;;;;;;;;;;;;;;;21.80;54.17;92458.56;5110464;28;20287;-82
2021/05/16 09:40:28;;;;;;;;;;;;;;;21.71;56.63;92459.28;5110304;28;19919;-82
2021/05/16 09:43:07;;;;;;;;;;;;;;;21.71;56.53;92456.66;5110043;28;20358;-81
2021/05/16 09:45:43;;;;;;;;;;;;;;;21.66;55.26;92454.13;5110050;28;19919;-82
2021/05/16 09:48:17;;;;;;;;;;;;;;;21.65;56.93;92450.00;5110312;28;20106;-81
2021/05/16 09:50:44;;;;;;;;;;;;;;;21.55;57.45;92447.59;5110243;28;19920;-81
2021/05/16 09:53:10;;;;;;;;;;;;;;;21.38;58.00;92449.03;5110187;28;19930;-81
2021/05/16 09:55:37;;;;;;;;;;;;;;;21.23;58.70;92444.91;5109871;28;20404;-82
2021/05/16 09:58:03;;;;;;;;;;;;;;;21.09;59.15;92445.75;5113459;28;19924;-82
2021/05/16 10:00:30;;;;;;;;;;;;;;;20.92;59.33;92456.78;5114325;28;19920;-82
2021/05/16 10:02:56;;;;;;;;;;;;;;;20.81;60.94;92450.19;5114266;28;20290;-82
2021/05/16 10:05:22;;;;;;;;;;;;;;;20.76;61.89;92443.25;5114074;28;19924;-82
2021/05/16 10:07:49;;;;;;;;;;;;;;;20.56;62.43;92457.47;5114198;28;19919;-82
2021/05/16 10:10:16;;;;;;;;;;;;;;;20.25;62.53;92468.47;5114532;28;20400;-83
2021/05/16 10:12:42;;;;;;;;;;;;;;;19.94;65.75;92461.16;5113954;28;19927;-82
2021/05/16 10:15:11;;;;;;;;;;;;;;;19.40;69.20;92470.03;5113984;28;19920;-82
2021/05/16 10:17:38;;;;;;;;;;;;;;;18.88;77.38;92468.06;5114103;28;19928;-82
2021/05/16 10:20:09;;;;;;;;;;;;;;;18.29;81.95;92476.03;5110008;28;19927;-83
2021/05/16 10:22:38;;;;;;;;;;;;;;;17.66;87.65;92482.75;5112285;28;19919;-82
2021/05/16 10:25:06;;;;;;;;;;;;;;;17.34;89.28;92492.59;5113641;28;20374;-84
2021/05/16 10:27:33;;;;;;;;;;;;;;;17.09;90.61;92504.69;5113833;28;19919;-85
2021/05/16 10:30:00;;;;;;;;;;;;;;;16.66;91.25;92511.03;5113403;28;19924;-85
2021/05/16 10:32:27;;;;;;;;;;;;;;;16.26;92.51;92512.69;5113361;28;19923;-85
2021/05/16 10:34:54;;;;;;;;;;;;;;;16.03;94.63;92510.38;5113078;28;19920;-86
2021/05/16 10:37:39;;;;;;;;;;;;;;;15.93;96.63;92517.38;5113205;28;19919;-86
2021/05/16 10:40:08;;;;;;;;;;;;;;;15.96;93.87;92506.53;5113241;28;20375;-86
2021/05/16 10:42:35;;;;;;;;;;;;;;;16.01;90.88;92509.06;5127462;28;19928;-86
2021/05/16 10:45:03;;;;;;;;;;;;;;;16.18;95.83;92511.41;5135359;28;19959;-87
2021/05/16 10:47:45;;;;;;;;;;;;;;;16.07;92.65;92517.63;5122421;28;20002;-85
2021/05/16 10:50:13;;;;;;;;;;;;;;;16.16;92.02;92514.25;5112866;28;19924;-87
2021/05/16 10:52:39;;;;;;;;;;;;;;;16.32;100.00;92513.44;5113007;28;19930;-90
2021/05/16 10:55:24;;;;;;;;;;;;;;;16.92;100.00;92510.16;5113591;28;19969;-89
2021/05/16 10:57:50;;;;;;;;;;;;;;;17.37;93.64;92499.84;5093584;28;19924;-88
2021/05/16 11:00:25;;;;;;;;;;;;;;;17.76;89.92;92499.06;5094931;28;19924;-87
2021/05/16 11:02:58;;;;;;;;;;;;;;;18.43;92.43;92495.09;5109697;28;20400;-90
2021/05/16 11:05:46;;;;;;;;;;;;;;;18.99;81.28;92496.59;5114492;28;19923;-91
2021/05/16 11:08:30;;;;;;;;;;;;;;;19.15;80.22;92494.56;5111797;28;19920;-95
2021/05/16 11:10:58;;;;;;;;;;;;;;;19.43;76.79;92494.72;5112469;28;20191;-89
2021/05/16 11:13:26;;;;;;;;;;;;;;;19.70;78.35;92491.47;5113080;28;19919;-83
2021/05/16 11:15:53;;;;;;;;;;;;;;;19.69;78.51;92491.75;5112658;28;19924;-87
2021/05/16 11:18:22;;;;;;;;;;;;;;;19.69;72.08;92500.34;5112570;28;19924;-85
2021/05/16 11:20:50;;;;;;;;;;;;;;;19.44;71.96;92501.50;5112696;28;19920;-86
2021/05/16 11:23:23;;;;;;;;;;;;;;;19.31;71.10;92506.34;5112578;28;20073;-87
2021/05/16 11:25:54;;;;;;;;;;;;;;;19.33;71.41;92498.25;5112525;28;19923;-86
2021/05/16 11:28:22;;;;;;;;;;;;;;;19.44;74.08;92499.66;5112186;27;19923;-86
2021/05/16 11:30:50;;;;;;;;;;;;;;;19.44;71.59;92501.50;5112690;28;20290;-86
2021/05/16 11:33:24;;;;;;;;;;;;;;;19.42;73.00;92499.19;5112587;28;20613;-86
2021/05/16 11:35:50;;;;;;;;;;;;;;;19.20;76.25;92497.91;5112431;28;19924;-85
2021/05/16 11:38:24;;;;;;;;;;;;;;;19.14;79.41;92491.22;5112131;28;20302;-84
2021/05/16 11:40:50;;;;;;;;;;;;;;;19.11;78.49;92480.59;5112361;28;19924;-87
2021/05/16 11:43:16;;;;;;;;;;;;;;;19.26;79.79;92480.41;5111854;28;19946;-87
2021/05/16 11:45:43;;;;;;;;;;;;;;;19.41;78.55;92479.41;5111345;28;19920;-86
2021/05/16 11:48:23;;;;;;;;;;;;;;;19.39;78.83;92476.28;5111550;28;19997;-86
2021/05/16 11:50:49;;;;;;;;;;;;;;;19.51;77.99;92478.47;5112026;28;20014;-86
2021/05/16 11:53:21;;;;;;;;;;;;;;;19.56;78.08;92477.63;5112009;28;19950;-87
2021/05/16 11:55:48;;;;;;;;;;;;;;;19.60;77.53;92473.41;5112019;28;19919;-86
2021/05/16 11:58:14;;;;;;;;;;;;;;;19.46;73.42;92481.16;5111627;28;19920;-86
2021/05/16 12:00:40;;;;;;;;;;;;;;;19.46;72.74;92471.53;5111576;28;19928;-86
2021/05/16 12:03:09;;;;;;;;;;;;;;;19.57;74.39;92472.13;5111629;28;19931;-85
2021/05/16 12:05:35;;;;;;;;;;;;;;;19.56;75.54;92465.38;5111796;28;19924;-85
2021/05/16 12:08:12;;;;;;;;;;;;;;;19.52;76.28;92458.41;5111921;28;19919;-86
2021/05/16 12:10:38;;;;;;;;;;;;;;;19.48;74.97;92458.97;5111382;28;19926;-85
2021/05/16 12:13:18;;;;;;;;;;;;;;;19.38;74.12;92471.38;5111643;28;19919;-85
2021/05/16 12:15:44;;;;;;;;;;;;;;;19.42;73.47;92475.72;5112125;28;19932;-86
2021/05/16 12:18:18;;;;;;;;;;;;;;;19.42;77.43;92473.13;5111383;28;19920;-86
2021/05/16 12:20:44;;;;;;;;;;;;;;;19.29;74.87;92473.81;5111259;28;20363;-85
2021/05/16 12:23:10;;;;;;;;;;;;;;;19.22;76.60;92482.00;5111226;28;19924;-87
2021/05/16 12:25:36;;;;;;;;;;;;;;;18.69;80.42;92478.44;5111525;28;19924;-85
2021/05/16 12:28:05;;;;;;;;;;;;;;;18.20;78.98;92491.47;5111391;28;20334;-86
2021/05/16 12:30:31;;;;;;;;;;;;;;;17.30;83.81;92494.16;5111447;28;20323;-86
2021/05/16 12:32:57;;;;;;;;;;;;;;;16.72;87.24;92492.88;5110949;28;19930;-87
2021/05/16 12:35:24;;;;;;;;;;;;;;;16.32;92.53;92488.31;5111260;28;19919;-87
2021/05/16 12:37:51;;;;;;;;;;;;;;;16.14;91.53;92500.00;5111247;28;19923;-86
2021/05/16 12:40:24;;;;;;;;;;;;;;;15.39;93.53;92496.09;5111551;28;19924;-91
2021/05/16 12:43:01;;;;;;;;;;;;;;;15.59;95.22;92497.91;5111067;28;19977;-86